createdAt,value
2023-01-11T00:02:37.311Z,5.18
2023-01-11T00:07:40.877Z,5.21
2023-01-11T00:12:42.577Z,5.25
2023-01-11T00:17:44.380Z,5.28
2023-01-11T00:22:46.198Z,5.31
2023-01-11T00:27:49.464Z,5.33
2023-01-11T00:33:00.688Z,5.37
2023-01-11T00:38:02.583Z,5.37
2023-01-11T00:43:23.047Z,5.23
2023-01-11T00:48:24.781Z,5.04
2023-01-11T00:53:26.479Z,4.78
2023-01-11T00:58:28.112Z,4.57
2023-01-11T01:03:29.800Z,4.54
2023-01-11T01:08:31.615Z,4.51
2023-01-11T01:13:51.946Z,4.47
2023-01-11T01:18:57.006Z,4.46
2023-01-11T01:23:58.679Z,4.41
2023-01-11T01:29:00.748Z,4.46
2023-01-11T01:34:02.412Z,4.47
2023-01-11T01:39:06.018Z,4.50
2023-01-11T01:44:45.193Z,4.60
2023-01-11T01:49:47.284Z,4.76
2023-01-11T01:54:49.523Z,4.94
2023-01-11T01:59:52.840Z,5.07
2023-01-11T02:04:56.732Z,5.18
2023-01-11T02:10:19.178Z,5.22
2023-01-11T02:15:22.374Z,5.25
2023-01-11T02:20:52.797Z,5.32
2023-01-11T02:26:01.589Z,5.18
2023-01-11T02:31:21.095Z,5.03
2023-01-11T02:36:44.498Z,4.91
2023-01-11T02:42:30.884Z,4.97
2023-01-11T02:48:02.061Z,4.96
2023-01-11T02:53:28.438Z,4.96
2023-01-11T02:58:36.387Z,4.98
2023-01-11T03:03:38.065Z,5.02
2023-01-11T03:09:13.791Z,5.07
2023-01-11T03:14:44.832Z,5.07
2023-01-11T03:19:51.679Z,5.11
2023-01-11T03:25:15.193Z,5.14
2023-01-11T03:30:21.717Z,5.17
2023-01-11T03:35:52.585Z,5.10
2023-01-11T03:41:05.443Z,5.14
2023-01-11T03:46:13.183Z,5.13
2023-01-11T03:51:19.034Z,5.10
2023-01-11T03:56:25.432Z,5.10
2023-01-11T04:01:27.431Z,5.13
2023-01-11T04:06:30.451Z,5.21
2023-01-11T04:11:32.173Z,5.25
2023-01-11T04:16:34.127Z,5.25
2023-01-11T04:21:35.834Z,5.26
2023-01-11T04:26:37.549Z,5.26
2023-01-11T04:31:39.368Z,5.31
2023-01-11T04:36:41.831Z,5.29
2023-01-11T04:42:01.904Z,5.28
2023-01-11T04:47:03.547Z,5.25
2023-01-11T04:52:05.494Z,5.26
2023-01-11T04:57:10.760Z,5.24
2023-01-11T05:02:13.695Z,5.23
2023-01-11T05:07:15.397Z,5.27
2023-01-11T05:12:16.981Z,5.27
2023-01-11T05:17:18.707Z,5.33
2023-01-11T05:22:20.358Z,5.43
2023-01-11T05:27:22.213Z,5.47
2023-01-11T05:32:23.872Z,5.52
2023-01-11T05:37:25.554Z,5.59
2023-01-11T05:42:27.265Z,5.57
2023-01-11T05:47:29.276Z,5.51
2023-01-11T05:52:31.019Z,5.47
2023-01-11T05:57:32.749Z,5.45
2023-01-11T06:02:35.372Z,5.50
2023-01-11T06:07:37.432Z,5.43
2023-01-11T06:12:39.116Z,5.36
2023-01-11T06:17:41.066Z,5.39
2023-01-11T06:22:42.911Z,5.60
2023-01-11T06:27:44.548Z,5.98
2023-01-11T06:32:46.494Z,6.27
2023-01-11T06:37:48.319Z,6.34
2023-01-11T06:42:50.091Z,6.41
2023-01-11T06:47:52.151Z,6.38
2023-01-11T06:52:59.090Z,6.71
2023-01-11T06:58:00.885Z,6.89
2023-01-11T07:03:06.608Z,6.88
2023-01-11T07:08:08.371Z,6.47
2023-01-11T07:13:12.061Z,6.22
2023-01-11T07:18:14.616Z,5.95
2023-01-11T07:23:16.387Z,5.85
2023-01-11T07:28:18.189Z,5.84
2023-01-11T07:33:20.043Z,5.90
2023-01-11T07:38:22.438Z,5.98
2023-01-11T07:43:24.435Z,6.14
2023-01-11T07:48:27.165Z,6.27
2023-01-11T07:53:29.115Z,6.32
2023-01-11T07:58:32.535Z,6.41
2023-01-11T08:03:34.405Z,6.43
2023-01-11T08:08:36.440Z,6.43
2023-01-11T08:13:57.382Z,6.49
2023-01-11T08:18:59.177Z,6.52
2023-01-11T08:24:00.992Z,6.55
2023-01-11T08:29:03.993Z,6.62
2023-01-11T08:34:05.964Z,6.59
2023-01-11T08:39:08.596Z,6.65
2023-01-11T08:44:11.898Z,6.75
2023-01-11T08:49:13.769Z,6.90
2023-01-11T08:54:17.544Z,7.02
2023-01-11T08:59:19.999Z,7.11
2023-01-11T09:04:25.818Z,7.23
2023-01-11T09:09:27.988Z,7.34
2023-01-11T09:14:29.675Z,7.44
2023-01-11T09:19:33.488Z,7.58
2023-01-11T09:24:35.388Z,7.68
2023-01-11T09:29:37.837Z,7.79
2023-01-11T09:34:41.107Z,7.88
2023-01-11T09:39:43.142Z,7.98
2023-01-11T09:44:51.959Z,8.07
2023-01-11T09:49:58.522Z,8.14
2023-01-11T09:55:01.281Z,8.26
2023-01-11T10:00:10.501Z,8.41
2023-01-11T10:05:50.014Z,8.55
2023-01-11T10:18:27.585Z,8.83
2023-01-11T10:22:19.476Z,8.94
2023-01-11T10:27:32.574Z,8.97
2023-01-11T10:33:01.971Z,9.08
2023-01-11T10:38:32.276Z,9.18
2023-01-11T10:43:41.456Z,9.31
2023-01-11T10:48:44.888Z,9.47
2023-01-11T10:53:49.996Z,9.77
2023-01-11T10:59:06.135Z,10.08
2023-01-11T11:04:26.987Z,10.22
2023-01-11T11:09:52.118Z,10.35
2023-01-11T11:15:03.706Z,10.46
2023-01-11T11:20:17.363Z,10.53
2023-01-11T11:25:23.856Z,10.62
2023-01-11T11:30:30.235Z,10.72
2023-01-11T11:35:34.014Z,10.79
2023-01-11T11:40:37.865Z,10.87
2023-01-11T11:45:59.131Z,10.97
2023-01-11T11:51:04.132Z,10.99
2023-01-11T11:56:08.676Z,11.02
2023-01-11T12:01:25.664Z,11.04
2023-01-11T12:06:29.024Z,11.05
2023-01-11T12:11:35.430Z,11.03
2023-01-11T12:16:40.632Z,10.93
2023-01-11T12:21:42.322Z,10.83
2023-01-11T12:26:58.707Z,10.77
2023-01-11T12:32:38.477Z,10.71
2023-01-11T12:38:05.056Z,10.65
2023-01-11T12:43:22.600Z,10.66
2023-01-11T12:48:45.665Z,10.68
2023-01-11T12:54:09.347Z,10.71
2023-01-11T12:59:23.532Z,10.75
2023-01-11T13:04:28.365Z,10.77
2023-01-11T13:09:48.720Z,10.80
2023-01-11T13:15:13.932Z,10.84
2023-01-11T13:20:25.519Z,10.82
2023-01-11T13:25:30.563Z,10.75
2023-01-11T13:30:33.018Z,10.63
2023-01-11T13:35:43.077Z,10.52
2023-01-11T13:40:49.765Z,10.49
2023-01-11T13:46:03.765Z,10.47
2023-01-11T13:51:21.682Z,10.47
2023-01-11T13:56:39.760Z,10.49
2023-01-11T14:01:53.857Z,10.49
2023-01-11T14:07:32.226Z,10.47
2023-01-11T14:13:53.474Z,10.46
2023-01-11T14:19:16.141Z,10.43
2023-01-11T14:24:19.905Z,10.40
2023-01-11T14:29:42.762Z,10.30
2023-01-11T14:35:18.059Z,10.25
2023-01-11T14:40:35.022Z,10.19
2023-01-11T14:46:03.339Z,10.13
2023-01-11T14:51:32.479Z,10.06
2023-01-11T14:56:49.071Z,10.00
2023-01-11T15:02:02.947Z,9.94
2023-01-11T15:07:25.283Z,9.88
2023-01-11T15:12:39.198Z,9.83
2023-01-11T15:18:00.487Z,9.81
2023-01-11T15:23:05.026Z,9.74
2023-01-11T15:28:34.080Z,9.73
2023-01-11T15:33:47.576Z,9.70
2023-01-11T15:39:05.637Z,9.65
2023-01-11T15:44:16.220Z,9.64
2023-01-11T15:49:38.654Z,9.59
2023-01-11T15:55:00.602Z,9.55
2023-01-11T16:00:17.176Z,9.53
2023-01-11T16:05:23.623Z,9.54
2023-01-11T16:10:43.804Z,9.52
2023-01-11T16:16:07.043Z,9.55
2023-01-11T16:21:23.435Z,9.55
2023-01-11T16:26:25.683Z,9.51
2023-01-11T16:31:53.463Z,9.44
2023-01-11T16:36:57.599Z,9.39
2023-01-11T16:42:05.623Z,9.39
2023-01-11T16:47:18.397Z,9.32
2023-01-11T16:52:35.722Z,9.30
2023-01-11T16:57:43.946Z,9.28
2023-01-11T17:02:48.825Z,9.30
2023-01-11T17:07:50.969Z,9.30
2023-01-11T17:13:04.631Z,9.27
2023-01-11T17:18:06.395Z,9.25
2023-01-11T17:23:15.872Z,9.22
2023-01-11T17:28:19.812Z,9.19
2023-01-11T17:33:32.643Z,9.23
2023-01-11T17:38:34.464Z,9.25
2023-01-11T17:43:55.990Z,9.21
2023-01-11T17:48:59.616Z,9.25
2023-01-11T17:54:01.351Z,9.27
2023-01-11T17:59:26.045Z,9.30
2023-01-11T18:04:28.492Z,9.26
2023-01-11T18:09:32.748Z,9.28
2023-01-11T18:14:56.734Z,9.27
2023-01-11T18:19:59.843Z,9.27
2023-01-11T18:25:14.592Z,9.29
2023-01-11T18:30:31.398Z,9.28
2023-01-11T18:35:42.651Z,9.27
2023-01-11T18:40:45.841Z,9.28
2023-01-11T18:45:47.621Z,9.27
2023-01-11T18:50:51.917Z,9.30
2023-01-11T18:55:53.812Z,9.33
2023-01-11T19:00:55.490Z,9.30
2023-01-11T19:05:57.200Z,9.30
2023-01-11T19:10:58.937Z,9.28
2023-01-11T19:16:01.774Z,9.26
2023-01-11T19:21:09.258Z,9.24
2023-01-11T19:26:10.965Z,9.20
2023-01-11T19:31:12.761Z,9.15
2023-01-11T19:36:14.454Z,9.10
2023-01-11T19:41:16.788Z,9.02
2023-01-11T19:46:30.579Z,8.91
2023-01-11T19:51:33.751Z,8.88
2023-01-11T19:56:35.450Z,8.84
2023-01-11T20:01:38.816Z,8.85
2023-01-11T20:06:41.894Z,8.84
2023-01-11T20:11:44.126Z,8.81
2023-01-11T20:16:46.437Z,8.78
2023-01-11T20:21:48.173Z,8.76
2023-01-11T20:26:49.828Z,8.76
2023-01-11T20:31:51.601Z,8.72
2023-01-11T20:36:53.332Z,8.73
2023-01-11T20:41:55.292Z,8.71
2023-01-11T20:46:57.905Z,8.68
2023-01-11T20:51:59.671Z,8.52
2023-01-11T20:57:05.373Z,8.52
2023-01-11T21:02:07.645Z,8.53
2023-01-11T21:07:09.823Z,8.54
2023-01-11T21:12:11.463Z,8.57
2023-01-11T21:17:13.243Z,8.52
2023-01-11T21:22:15.836Z,8.56
2023-01-11T21:27:17.663Z,8.52
2023-01-11T21:32:19.361Z,8.39
2023-01-11T21:37:24.455Z,8.31
2023-01-11T21:42:26.201Z,8.24
2023-01-11T21:47:27.950Z,8.21
2023-01-11T21:52:29.811Z,8.23
2023-01-11T21:57:31.464Z,8.32
2023-01-11T22:02:33.256Z,8.31
2023-01-11T22:07:37.526Z,8.40
2023-01-11T22:12:39.281Z,8.42
2023-01-11T22:17:41.253Z,8.46
2023-01-11T22:22:43.580Z,8.45
2023-01-11T22:27:45.178Z,8.36
2023-01-11T22:32:47.841Z,8.24
2023-01-11T22:37:49.491Z,8.17
2023-01-11T22:42:51.264Z,8.09
2023-01-11T22:47:52.921Z,8.03
2023-01-11T22:52:54.564Z,8.02
2023-01-11T22:57:56.450Z,7.99
2023-01-11T23:02:58.372Z,8.00
2023-01-11T23:08:00.245Z,8.01
2023-01-11T23:13:20.485Z,8.05
2023-01-11T23:18:22.300Z,8.06
2023-01-11T23:23:27.174Z,8.03
2023-01-11T23:28:30.635Z,7.94
2023-01-11T23:33:32.259Z,7.94
2023-01-11T23:38:33.908Z,7.97
2023-01-11T23:43:38.334Z,8.00
2023-01-11T23:48:40.082Z,8.02
2023-01-11T23:53:42.014Z,8.05
2023-01-11T23:58:43.737Z,8.05
